createdAt,value
2018-04-01T02:42:27.799Z,100455.34
2018-04-01T02:44:55.362Z,100453.48
2018-04-01T02:47:22.953Z,100459.96
2018-04-01T02:49:51.269Z,100458.37
2018-04-01T02:52:18.820Z,100460.90
2018-04-01T02:54:46.367Z,100463.02
2018-04-01T02:57:14.692Z,100461.28
2018-04-01T02:59:42.238Z,100459.69
2018-04-01T03:02:09.852Z,100463.34
2018-04-01T03:04:37.439Z,100461.87
2018-04-01T03:07:05.039Z,100457.30
2018-04-01T03:09:32.593Z,100458.98
2018-04-01T03:12:00.992Z,100457.80
2018-04-01T03:14:28.534Z,100453.22
2018-04-01T03:16:56.118Z,100458.52
2018-04-01T03:19:23.736Z,100461.59
2018-04-01T03:21:51.312Z,100463.34
2018-04-01T03:24:19.650Z,100465.62
2018-04-01T03:26:47.270Z,100470.47
2018-04-01T03:29:14.828Z,100467.72
2018-04-01T03:31:43.177Z,100469.77
2018-04-01T03:34:10.767Z,100471.92
2018-04-01T03:36:39.394Z,100477.52
2018-04-01T03:39:06.960Z,100471.52
2018-04-01T03:41:34.532Z,100475.91
2018-04-01T03:44:02.072Z,100476.33
2018-04-01T03:46:29.608Z,100484.61
2018-04-01T03:48:57.889Z,100488.41
2018-04-01T03:51:25.506Z,100488.22
2018-04-01T03:53:53.074Z,100484.74
2018-04-01T03:56:20.606Z,100491.38
2018-04-01T03:58:48.171Z,100494.55
2018-04-01T04:01:15.742Z,100496.98
2018-04-01T04:03:43.292Z,100502.05
2018-04-01T04:06:10.844Z,100498.08
2018-04-01T04:08:39.193Z,100506.41
2018-04-01T04:11:06.814Z,100503.21
2018-04-01T04:13:34.399Z,100493.82
2018-04-01T04:16:01.971Z,100510.46
2018-04-01T04:18:29.564Z,100514.25
2018-04-01T04:20:57.140Z,100513.88
2018-04-01T04:23:24.683Z,100521.38
2018-04-01T04:25:52.258Z,100521.03
2018-04-01T04:28:20.823Z,100528.70
2018-04-01T04:30:48.393Z,100527.78
2018-04-01T04:33:16.644Z,100529.63
2018-04-01T04:35:44.243Z,100531.70
2018-04-01T04:38:13.548Z,100530.08
2018-04-01T04:40:41.901Z,100532.02
2018-04-01T04:43:09.445Z,100537.94
2018-04-01T04:45:37.022Z,100539.86
2018-04-01T04:48:04.565Z,100552.41
2018-04-01T04:50:32.145Z,100548.95
2018-04-01T04:52:59.678Z,100556.13
2018-04-01T04:55:27.287Z,100552.47
2018-04-01T04:57:54.887Z,100557.46
2018-04-01T05:00:23.207Z,100558.09
2018-04-01T05:02:50.729Z,100553.65
2018-04-01T05:05:18.304Z,100553.50
2018-04-01T05:07:46.713Z,100567.41
2018-04-01T05:10:14.278Z,100566.59
2018-04-01T05:12:41.826Z,100572.03
2018-04-01T05:15:09.835Z,100575.75
2018-04-01T05:17:37.427Z,100579.05
2018-04-01T05:20:05.773Z,100582.23
2018-04-01T05:22:33.357Z,100592.24
2018-04-01T05:25:00.926Z,100590.74
2018-04-01T05:27:28.454Z,100594.39
2018-04-01T05:29:56.044Z,100601.48
2018-04-01T05:32:23.587Z,100595.77
2018-04-01T05:34:51.243Z,100602.21
2018-04-01T05:37:18.869Z,100608.42
2018-04-01T05:39:47.949Z,100616.37
2018-04-01T05:42:15.568Z,100619.36
2018-04-01T05:44:43.083Z,100622.66
2018-04-01T05:47:11.442Z,100627.48
2018-04-01T05:49:38.999Z,100625.91
2018-04-01T05:52:06.569Z,100632.86
2018-04-01T05:54:34.195Z,100632.45
2018-04-01T05:57:01.738Z,100640.64
2018-04-01T05:59:30.083Z,100642.79
2018-04-01T06:01:57.688Z,100654.03
2018-04-01T06:04:26.017Z,100651.72
2018-04-01T06:06:53.597Z,100650.43
2018-04-01T06:09:21.247Z,100654.31
2018-04-01T06:11:48.835Z,100659.94
2018-04-01T06:14:16.357Z,100659.12
2018-04-01T06:16:43.909Z,100668.56
2018-04-01T06:19:11.457Z,100669.22
2018-04-01T06:21:39.036Z,100671.41
2018-04-01T06:24:06.581Z,100679.16
2018-04-01T06:26:34.260Z,100677.33
2018-04-01T06:29:01.893Z,100686.94
2018-04-01T06:31:29.424Z,100693.63
2018-04-01T06:33:56.965Z,100695.09
2018-04-01T06:36:24.557Z,100702.23
2018-04-01T06:38:52.103Z,100696.54
2018-04-01T06:41:19.691Z,100708.70
2018-04-01T06:43:47.249Z,100712.75
2018-04-01T06:46:14.874Z,100719.27
2018-04-01T06:48:42.754Z,100715.54
2018-04-01T06:51:10.306Z,100719.47
2018-04-01T06:53:37.954Z,100734.20
2018-04-01T06:56:06.302Z,100728.37
2018-04-01T06:58:33.933Z,100734.84
2018-04-01T07:01:01.477Z,100739.13
2018-04-01T07:03:30.446Z,100742.70
2018-04-01T07:05:58.825Z,100745.37
2018-04-01T07:08:26.457Z,100752.98
2018-04-01T07:10:53.991Z,100757.09
2018-04-01T07:13:22.336Z,100753.04
2018-04-01T07:15:49.874Z,100763.53
2018-04-01T07:18:17.538Z,100766.52
2018-04-01T07:20:45.126Z,100770.39
2018-04-01T07:23:12.674Z,100775.77
2018-04-01T07:25:40.264Z,100781.12
2018-04-01T07:28:07.791Z,100789.37
2018-04-01T07:30:35.901Z,100793.78
2018-04-01T07:33:03.443Z,100790.91
2018-04-01T07:35:30.960Z,100805.25
2018-04-01T07:37:58.491Z,100801.52
2018-04-01T07:40:26.024Z,100805.33
2018-04-01T07:42:53.541Z,100807.92
2018-04-01T07:45:21.107Z,100811.77
2018-04-01T07:47:48.660Z,100819.41
2018-04-01T07:50:17.397Z,100829.49
2018-04-01T07:52:44.916Z,100826.28
2018-04-01T07:55:13.201Z,100841.88
2018-04-01T07:57:40.717Z,100839.52
2018-04-01T08:00:08.258Z,100843.81
2018-04-01T08:02:35.797Z,100854.05
2018-04-01T08:05:03.337Z,100855.73
2018-04-01T08:07:31.616Z,100866.10
2018-04-01T08:10:00.067Z,100872.05
2018-04-01T08:12:27.611Z,100878.68
2018-04-01T08:14:55.194Z,100880.67
2018-04-01T08:17:24.136Z,100883.59
2018-04-01T08:19:52.093Z,100888.00
2018-04-01T08:22:19.667Z,100892.94
2018-04-01T08:24:47.966Z,100894.14
2018-04-01T08:27:15.477Z,100897.48
2018-04-01T08:29:42.997Z,100902.53
2018-04-01T08:32:10.517Z,100900.88
2018-04-01T08:34:38.047Z,100906.46
2018-04-01T08:37:05.596Z,100917.86
2018-04-01T08:39:33.131Z,100919.35
2018-04-01T08:42:01.454Z,100922.59
2018-04-01T08:44:28.989Z,100925.55
2018-04-01T08:46:56.518Z,100927.25
2018-04-01T08:49:24.130Z,100927.92
2018-04-01T08:51:51.648Z,100934.45
2018-04-01T08:54:19.932Z,100946.84
2018-04-01T08:56:48.246Z,100951.98
2018-04-01T08:59:15.777Z,100954.60
2018-04-01T09:01:44.070Z,100957.84
2018-04-01T09:04:12.459Z,100954.14
2018-04-01T09:06:40.000Z,100954.15
2018-04-01T09:09:08.290Z,100960.88
2018-04-01T09:11:36.758Z,100963.31
2018-04-01T09:14:05.054Z,100963.34
2018-04-01T09:16:33.390Z,100970.33
2018-04-01T09:19:00.924Z,100982.68
2018-04-01T09:21:28.458Z,100988.63
2018-04-01T09:23:56.772Z,100990.13
2018-04-01T09:26:24.295Z,101004.85
2018-04-01T09:28:52.609Z,101005.80
2018-04-01T09:31:20.122Z,101016.91
2018-04-01T09:33:47.806Z,101012.64
2018-04-01T09:36:15.370Z,101025.09
2018-04-01T09:38:43.673Z,101028.12
2018-04-01T09:41:11.183Z,101037.23
2018-04-01T09:43:38.713Z,101042.55
2018-04-01T09:46:06.308Z,101042.31
2018-04-01T09:48:33.867Z,101043.94
2018-04-01T09:51:01.412Z,101047.55
2018-04-01T09:53:28.928Z,101047.61
2018-04-01T09:55:56.507Z,101050.16
2018-04-01T09:58:24.807Z,101044.68
2018-04-01T10:01:00.053Z,101046.77
2018-04-01T10:03:28.362Z,101039.39
2018-04-01T10:05:56.694Z,101041.64
2018-04-01T10:08:25.039Z,101046.45
2018-04-01T10:10:53.402Z,101045.01
2018-04-01T10:13:21.724Z,101043.09
2018-04-01T10:15:50.918Z,101040.88
2018-04-01T10:18:20.112Z,101052.54
2018-04-01T10:20:48.430Z,101063.13
2018-04-01T10:23:17.651Z,101066.12
2018-04-01T10:25:45.949Z,101067.27
2018-04-01T10:28:14.269Z,101070.02
2018-04-01T10:30:43.482Z,101075.41
2018-04-01T10:33:12.577Z,101083.50
2018-04-01T10:35:41.686Z,101080.91
2018-04-01T10:38:09.998Z,101088.67
2018-04-01T10:40:38.386Z,101086.56
2018-04-01T10:43:06.743Z,101097.57
2018-04-01T10:45:35.126Z,101097.03
2018-04-01T10:48:03.456Z,101103.12
2018-04-01T10:50:31.860Z,101105.78
2018-04-01T10:53:00.939Z,101098.30
2018-04-01T10:55:28.588Z,101103.56
2018-04-01T10:57:57.738Z,101112.53
2018-04-01T11:00:25.268Z,101119.94
2018-04-01T11:02:52.832Z,101119.17
2018-04-01T11:05:20.356Z,101130.31
2018-04-01T11:07:47.880Z,101132.06
2018-04-01T11:10:16.194Z,101135.25
2018-04-01T11:12:43.711Z,101132.61
2018-04-01T11:15:11.304Z,101127.70
2018-04-01T11:20:12.651Z,101139.36
2018-04-01T11:22:40.954Z,101137.38
2018-04-01T11:25:08.486Z,101137.05
2018-04-01T11:27:36.001Z,101140.31
2018-04-01T11:30:03.521Z,101142.61
2018-04-01T11:32:31.829Z,101140.00
2018-04-01T11:34:59.349Z,101149.34
2018-04-01T11:37:26.930Z,101151.48
2018-04-01T11:39:55.278Z,101155.70
2018-04-01T11:42:22.851Z,101153.57
2018-04-01T11:44:50.378Z,101160.13
2018-04-01T11:47:17.932Z,101157.44
2018-04-01T11:49:45.717Z,101159.55
2018-04-01T11:52:14.155Z,101172.22
2018-04-01T11:54:41.710Z,101179.41
2018-04-01T11:57:09.235Z,101189.23
2018-04-01T11:59:36.764Z,101197.78
2018-04-01T12:02:04.288Z,101197.91
2018-04-01T12:04:31.859Z,101203.28
2018-04-01T12:07:00.240Z,101207.51
2018-04-01T12:09:28.534Z,101211.70
2018-04-01T12:11:56.834Z,101212.03
2018-04-01T12:14:24.394Z,101204.58
2018-04-01T12:16:52.684Z,101205.14
2018-04-01T12:19:20.224Z,101202.90
2018-04-01T12:21:48.629Z,101196.02
2018-04-01T12:24:16.260Z,101192.11
2018-04-01T12:26:43.978Z,101194.04
2018-04-01T12:29:11.621Z,101207.02
2018-04-01T12:31:39.188Z,101203.52
2018-04-01T12:34:06.715Z,101199.22
2018-04-01T12:36:34.497Z,101202.86
2018-04-01T12:39:02.359Z,101206.87
2018-04-01T12:41:30.129Z,101206.89
2018-04-01T12:43:58.160Z,101219.78
2018-04-01T12:46:26.310Z,101220.97
2018-04-01T12:48:53.980Z,101221.06
2018-04-01T12:51:22.439Z,101218.14
2018-04-01T12:53:51.490Z,101212.11
2018-04-01T12:56:20.968Z,101219.72
2018-04-01T12:58:48.454Z,101217.65
2018-04-01T13:01:15.968Z,101218.33
2018-04-01T13:03:44.886Z,101220.47
2018-04-01T13:06:13.175Z,101221.16
2018-04-01T13:08:40.884Z,101231.30
2018-04-01T13:11:08.438Z,101237.52
2018-04-01T13:13:35.954Z,101243.02
2018-04-01T13:16:04.295Z,101234.53
2018-04-01T13:18:31.852Z,101243.63
2018-04-01T13:20:59.368Z,101252.09
2018-04-01T13:23:27.685Z,101255.58
2018-04-01T13:25:55.234Z,101256.73
2018-04-01T13:28:22.775Z,101254.89
2018-04-01T13:30:51.080Z,101259.58
2018-04-01T13:33:18.711Z,101263.66
2018-04-01T13:35:47.032Z,101265.45
2018-04-01T13:38:14.587Z,101267.18
2018-04-01T13:40:42.158Z,101265.05
2018-04-01T13:43:09.774Z,101267.81
2018-04-01T13:45:38.151Z,101270.20
2018-04-01T13:48:05.687Z,101279.39
2018-04-01T13:50:33.281Z,101272.94
2018-04-01T13:53:00.907Z,101270.93
2018-04-01T13:55:28.438Z,101283.61
2018-04-01T13:57:55.965Z,101282.66
2018-04-01T14:00:23.710Z,101284.34
2018-04-01T14:02:51.240Z,101286.92
2018-04-01T14:05:18.770Z,101294.13
2018-04-01T14:07:46.494Z,101297.63
2018-04-01T14:10:14.037Z,101290.55
2018-04-01T14:12:41.572Z,101299.42
2018-04-01T14:15:09.911Z,101298.07
2018-04-01T14:17:37.478Z,101292.72
2018-04-01T14:20:05.005Z,101303.55
2018-04-01T14:22:32.561Z,101305.03
2018-04-01T14:25:00.111Z,101303.12
2018-04-01T14:27:28.425Z,101306.94
2018-04-01T14:29:55.973Z,101307.22
2018-04-01T14:32:23.539Z,101302.93
2018-04-01T14:34:51.093Z,101306.12
2018-04-01T14:37:19.518Z,101305.63
2018-04-01T14:39:47.034Z,101319.99
2018-04-01T14:42:15.362Z,101318.57
2018-04-01T14:44:42.902Z,101313.19
2018-04-01T14:47:10.409Z,101315.58
2018-04-01T14:49:41.020Z,101309.81
2018-04-01T14:52:08.538Z,101308.11
2018-04-01T14:54:36.869Z,101310.73
2018-04-01T14:57:05.033Z,101314.84
2018-04-01T14:59:33.226Z,101309.16
2018-04-01T15:02:01.044Z,101314.66
2018-04-01T15:04:29.550Z,101315.96
2018-04-01T15:06:57.228Z,101317.52
2018-04-01T15:09:24.799Z,101317.40
2018-04-01T15:11:52.331Z,101322.92
2018-04-01T15:14:19.899Z,101326.45
2018-04-01T15:16:48.210Z,101325.25
2018-04-01T15:19:15.718Z,101331.55
2018-04-01T15:21:44.010Z,101337.22
2018-04-01T15:24:12.943Z,101337.38
2018-04-01T15:26:40.595Z,101344.70
2018-04-01T15:29:08.266Z,101354.23
2018-04-01T15:31:35.889Z,101344.67
2018-04-01T15:34:06.529Z,101341.62
2018-04-01T15:36:35.158Z,101357.19
2018-04-01T15:39:02.874Z,101364.04
2018-04-01T15:41:31.904Z,101361.94
2018-04-01T15:44:02.380Z,101352.56
2018-04-01T15:46:30.711Z,101347.12
2018-04-01T15:48:58.238Z,101350.64
2018-04-01T15:51:25.786Z,101357.25
2018-04-01T15:53:54.130Z,101354.39
2018-04-01T15:56:21.683Z,101355.13
2018-04-01T15:58:49.977Z,101357.44
2018-04-01T16:01:17.507Z,101348.80
2018-04-01T16:03:45.805Z,101353.26
2018-04-01T16:06:13.359Z,101360.36
2018-04-01T16:08:41.663Z,101349.70
2018-04-01T16:11:09.302Z,101351.19
2018-04-01T16:13:36.864Z,101345.89
2018-04-01T16:16:05.212Z,101356.88
2018-04-01T16:18:32.738Z,101351.41
2018-04-01T16:21:00.314Z,101364.38
2018-04-01T16:23:27.874Z,101360.52
2018-04-01T16:25:55.446Z,101366.92
2018-04-01T16:28:23.000Z,101367.75
2018-04-01T16:30:50.547Z,101369.29
2018-04-01T16:33:18.095Z,101374.95
2018-04-01T16:35:46.389Z,101379.91
2018-04-01T16:38:13.940Z,101375.52
2018-04-01T16:40:42.229Z,101381.93
2018-04-01T16:43:10.514Z,101380.55
2018-04-01T16:45:39.579Z,101382.45
2018-04-01T16:48:07.130Z,101381.89
2018-04-01T16:50:34.673Z,101387.01
2018-04-01T16:53:02.227Z,101389.03
2018-04-01T16:55:29.780Z,101391.38
2018-04-01T16:57:57.342Z,101381.77
2018-04-01T17:00:24.903Z,101391.84
2018-04-01T17:02:52.431Z,101395.94
2018-04-01T17:05:19.945Z,101401.09
2018-04-01T17:07:47.474Z,101407.57
2018-04-01T17:10:15.906Z,101407.45
2018-04-01T17:12:43.487Z,101410.92
2018-04-01T17:15:11.074Z,101418.95
2018-04-01T17:17:38.555Z,101425.83
2018-04-01T17:20:06.644Z,101423.90
2018-04-01T17:22:34.208Z,101432.05
2018-04-01T17:25:01.728Z,101430.70
2018-04-01T17:27:30.247Z,101430.27
2018-04-01T17:29:57.820Z,101422.84
2018-04-01T17:32:25.415Z,101428.28
2018-04-01T17:34:53.013Z,101433.69
2018-04-01T17:37:20.524Z,101433.14
2018-04-01T17:39:48.087Z,101435.09
2018-04-01T17:42:16.159Z,101428.30
2018-04-01T17:44:43.846Z,101427.63
2018-04-01T17:47:11.841Z,101420.56
2018-04-01T17:49:39.381Z,101426.87
2018-04-01T17:52:07.512Z,101426.80
2018-04-01T17:54:35.894Z,101430.47
2018-04-01T17:57:03.790Z,101429.13
2018-04-01T17:59:31.344Z,101427.22
2018-04-01T18:01:58.868Z,101428.12
2018-04-01T18:04:27.163Z,101431.42
2018-04-01T18:06:55.493Z,101428.41
2018-04-01T18:09:23.945Z,101432.05
2018-04-01T18:11:51.490Z,101443.14
2018-04-01T18:14:19.896Z,101438.54
2018-04-01T18:16:47.429Z,101438.86
2018-04-01T18:19:15.701Z,101440.23
2018-04-01T18:21:43.291Z,101439.15
2018-04-01T18:24:11.147Z,101445.02
2018-04-01T18:26:38.644Z,101449.23
2018-04-01T18:29:06.180Z,101451.73
2018-04-01T18:31:35.077Z,101453.97
2018-04-01T18:34:03.388Z,101466.14
2018-04-01T18:36:30.927Z,101466.30
2018-04-01T18:38:58.460Z,101467.44
2018-04-01T18:41:26.480Z,101471.72
2018-04-01T18:43:54.101Z,101475.62
2018-04-01T18:46:21.676Z,101471.72
2018-04-01T18:48:49.963Z,101474.37
2018-04-01T18:51:17.584Z,101474.22
2018-04-01T18:53:45.139Z,101479.91
2018-04-01T18:56:12.657Z,101479.23
2018-04-01T18:58:41.787Z,101488.02
2018-04-01T19:01:09.354Z,101481.16
2018-04-01T19:03:36.877Z,101482.82
2018-04-01T19:06:05.258Z,101493.01
2018-04-01T19:08:33.559Z,101492.36
2018-04-01T19:11:01.106Z,101499.17
2018-04-01T19:13:29.399Z,101494.55
2018-04-01T19:15:57.527Z,101499.96
2018-04-01T19:18:25.851Z,101502.05
2018-04-01T19:20:54.991Z,101509.92
2018-04-01T19:23:23.505Z,101507.69
2018-04-01T19:25:52.643Z,101510.75
2018-04-01T19:28:20.956Z,101500.56
2018-04-01T19:30:49.307Z,101506.85
2018-04-01T19:33:17.630Z,101512.88
2018-04-01T19:35:45.968Z,101513.48
2018-04-01T19:38:14.324Z,101511.81
2018-04-01T19:40:42.671Z,101513.06
2018-04-01T19:43:10.978Z,101512.98
2018-04-01T19:45:39.403Z,101512.84
2018-04-01T19:48:07.739Z,101518.41
2018-04-01T19:50:36.861Z,101521.89
2018-04-01T19:53:06.027Z,101516.58
2018-04-01T19:55:34.361Z,101514.27
2018-04-01T19:58:02.708Z,101513.77
2018-04-01T20:00:31.677Z,101512.03
2018-04-01T20:02:59.996Z,101513.70
2018-04-01T20:05:28.345Z,101510.06
2018-04-01T20:07:56.719Z,101508.73
2018-04-01T20:10:25.945Z,101508.23
2018-04-01T20:12:54.275Z,101507.74
2018-04-01T20:15:22.608Z,101499.38
2018-04-01T20:17:51.269Z,101507.74
2018-04-01T20:20:19.611Z,101496.61
2018-04-01T20:22:49.183Z,101500.74
2018-04-01T20:25:17.529Z,101496.09
2018-04-01T20:27:45.873Z,101489.54
2018-04-01T20:30:14.288Z,101496.03
2018-04-01T20:32:42.660Z,101496.98
2018-04-01T20:35:10.971Z,101496.50
2018-04-01T20:37:39.314Z,101495.02
2018-04-01T20:40:07.643Z,101497.94
2018-04-01T20:42:35.969Z,101499.41
2018-04-01T20:45:05.071Z,101501.69
2018-04-01T20:47:34.187Z,101496.14
2018-04-01T20:50:02.594Z,101501.45
2018-04-01T20:52:31.649Z,101501.75
2018-04-01T20:55:00.761Z,101503.20
2018-04-01T20:57:29.304Z,101507.78
2018-04-01T21:00:01.632Z,101505.41
2018-04-01T21:02:29.988Z,101507.61
2018-04-01T21:04:59.099Z,101504.83
2018-04-01T21:07:27.442Z,101509.61
2018-04-01T21:09:55.815Z,101508.25
2018-04-01T21:12:24.121Z,101495.09
2018-04-01T21:14:53.876Z,101498.76
2018-04-01T21:17:22.207Z,101505.45
2018-04-01T21:19:50.669Z,101493.05
2018-04-01T21:22:19.025Z,101492.97
2018-04-01T21:24:47.425Z,101496.30
2018-04-01T21:27:15.749Z,101494.56
2018-04-01T21:29:44.853Z,101493.16
2018-04-01T21:32:13.926Z,101498.23
2018-04-01T21:34:42.257Z,101498.08
2018-04-01T21:37:10.644Z,101492.93
2018-04-01T21:39:39.099Z,101495.31
2018-04-01T21:42:08.237Z,101498.95
2018-04-01T21:44:36.570Z,101491.98
2018-04-01T21:47:05.684Z,101491.64
2018-04-01T21:49:34.837Z,101487.55
2018-04-01T21:52:03.325Z,101492.20
2018-04-01T21:54:32.494Z,101486.86
2018-04-01T21:57:00.849Z,101489.05
2018-04-01T21:59:29.980Z,101486.12
2018-04-01T22:01:58.375Z,101482.14
2018-04-01T22:04:26.773Z,101477.02
2018-04-01T22:06:55.843Z,101481.34
2018-04-01T22:09:24.304Z,101478.57
2018-04-01T22:11:53.465Z,101482.67
2018-04-01T22:14:21.828Z,101479.48
2018-04-01T22:16:50.181Z,101480.54
2018-04-01T22:19:19.397Z,101480.73
2018-04-01T22:21:48.693Z,101485.59
2018-04-01T22:24:17.007Z,101476.00
2018-04-01T22:26:46.360Z,101477.59
2018-04-01T22:29:14.681Z,101475.24
2018-04-01T22:31:43.084Z,101471.39
2018-04-01T22:34:12.269Z,101471.44
2018-04-01T22:36:41.321Z,101468.69
2018-04-01T22:39:11.248Z,101466.23
2018-04-01T22:41:39.607Z,101458.70
2018-04-01T22:44:08.831Z,101453.81
2018-04-01T22:46:37.235Z,101460.31
2018-04-01T22:49:05.608Z,101451.61
2018-04-01T22:51:34.041Z,101454.19
2018-04-01T22:54:03.866Z,101452.86
2018-04-01T22:56:32.798Z,101448.83
2018-04-01T22:59:01.128Z,101446.99
2018-04-01T23:01:29.563Z,101442.39
2018-04-01T23:03:57.981Z,101443.11
2018-04-01T23:06:26.689Z,101436.55
2018-04-01T23:08:55.826Z,101440.54
2018-04-01T23:11:24.235Z,101431.79
2018-04-01T23:13:52.643Z,101436.01
2018-04-01T23:16:20.988Z,101430.45
2018-04-01T23:18:49.358Z,101429.98
2018-04-01T23:21:18.175Z,101430.76
2018-04-01T23:23:46.539Z,101434.94
2018-04-01T23:26:14.900Z,101433.87
2018-04-01T23:28:44.025Z,101435.12
2018-04-01T23:31:12.446Z,101434.87
2018-04-01T23:33:40.781Z,101426.37
2018-04-01T23:36:09.103Z,101430.00
2018-04-01T23:38:37.481Z,101432.47
2018-04-01T23:41:06.879Z,101432.34
2018-04-01T23:43:36.172Z,101439.32
2018-04-01T23:46:04.604Z,101428.25
2018-04-01T23:48:34.647Z,101419.50
2018-04-01T23:51:03.005Z,101424.28
2018-04-01T23:53:31.355Z,101418.88
2018-04-01T23:55:59.763Z,101416.30
2018-04-01T23:58:28.138Z,101410.79
